createdAt,value
2022-09-07T00:01:26.385Z,83.69
2022-09-07T00:03:56.745Z,84.23
2022-09-07T00:06:26.200Z,83.76
2022-09-07T00:08:55.001Z,83.70
2022-09-07T00:11:24.069Z,84.78
2022-09-07T00:13:52.948Z,84.56
2022-09-07T00:16:23.771Z,82.76
2022-09-07T00:18:55.545Z,83.52
2022-09-07T00:21:25.141Z,82.95
2022-09-07T00:23:54.222Z,82.95
2022-09-07T00:26:24.533Z,83.32
2022-09-07T00:28:54.102Z,83.95
2022-09-07T00:31:24.416Z,84.15
2022-09-07T00:33:55.558Z,83.68
2022-09-07T00:36:24.517Z,83.60
2022-09-07T00:38:53.588Z,83.74
2022-09-07T00:41:23.220Z,83.36
2022-09-07T00:43:53.571Z,83.30
2022-09-07T00:46:23.987Z,83.81
2022-09-07T00:49:00.842Z,83.53
2022-09-07T00:51:36.835Z,83.45
2022-09-07T00:54:07.917Z,84.08
2022-09-07T00:56:39.310Z,84.42
2022-09-07T00:59:08.994Z,84.75
2022-09-07T01:01:39.193Z,84.63
2022-09-07T01:04:09.824Z,84.46
2022-09-07T01:06:39.995Z,84.26
2022-09-07T01:09:11.279Z,83.13
2022-09-07T01:11:40.316Z,84.10
2022-09-07T01:14:11.590Z,84.22
2022-09-07T01:16:53.062Z,84.86
2022-09-07T01:19:43.604Z,86.12
2022-09-07T01:22:27.683Z,84.88
2022-09-07T01:25:03.449Z,84.74
2022-09-07T01:28:02.498Z,84.84
2022-09-07T01:30:32.219Z,85.15
2022-09-07T01:33:11.739Z,84.63
2022-09-07T01:35:45.904Z,85.00
2022-09-07T01:38:19.272Z,85.39
2022-09-07T01:40:52.201Z,85.38
2022-09-07T01:43:27.537Z,85.23
2022-09-07T01:45:57.171Z,85.24
2022-09-07T01:48:27.261Z,84.88
2022-09-07T01:51:00.423Z,85.73
2022-09-07T01:53:34.054Z,85.68
2022-09-07T01:56:04.936Z,85.51
2022-09-07T01:58:38.712Z,85.52
2022-09-07T02:01:11.558Z,85.26
2022-09-07T02:03:42.541Z,85.23
2022-09-07T02:06:15.717Z,85.48
2022-09-07T02:08:47.650Z,85.11
2022-09-07T02:11:19.302Z,84.85
2022-09-07T02:13:51.711Z,84.71
2022-09-07T02:16:23.291Z,84.85
2022-09-07T02:18:54.825Z,85.07
2022-09-07T02:21:27.115Z,85.17
2022-09-07T02:24:00.602Z,84.39
2022-09-07T02:26:29.914Z,84.32
2022-09-07T02:29:00.163Z,84.36
2022-09-07T02:31:29.045Z,84.59
2022-09-07T02:33:58.128Z,84.98
2022-09-07T02:36:31.214Z,85.38
2022-09-07T02:39:00.490Z,84.85
2022-09-07T02:41:34.924Z,84.67
2022-09-07T02:44:07.244Z,84.29
2022-09-07T02:47:07.204Z,84.01
2022-09-07T02:50:03.515Z,84.26
2022-09-07T02:52:40.047Z,83.73
2022-09-07T02:55:14.809Z,83.85
2022-09-07T02:57:50.948Z,84.19
2022-09-07T03:00:25.993Z,84.03
2022-09-07T03:03:01.682Z,84.08
2022-09-07T03:05:38.025Z,84.84
2022-09-07T03:08:09.314Z,85.36
2022-09-07T03:10:39.194Z,85.21
2022-09-07T03:13:08.018Z,85.06
2022-09-07T03:15:38.247Z,84.52
2022-09-07T03:18:07.270Z,84.57
2022-09-07T03:20:36.096Z,85.23
2022-09-07T03:23:04.909Z,86.05
2022-09-07T03:25:33.759Z,88.86
2022-09-07T03:28:02.820Z,88.92
2022-09-07T03:30:32.094Z,90.77
2022-09-07T03:33:02.287Z,91.23
2022-09-07T03:35:31.151Z,92.02
2022-09-07T03:37:59.962Z,91.54
2022-09-07T03:40:28.922Z,90.42
2022-09-07T03:42:57.725Z,94.56
2022-09-07T03:45:26.652Z,95.27
2022-09-07T03:47:55.490Z,94.98
2022-09-07T03:50:25.616Z,93.79
2022-09-07T03:52:54.365Z,93.20
2022-09-07T03:55:23.169Z,94.46
2022-09-07T03:57:51.958Z,95.30
2022-09-07T04:00:20.821Z,95.76
2022-09-07T04:02:49.656Z,96.50
2022-09-07T04:05:21.691Z,97.14
2022-09-07T04:07:52.546Z,98.51
2022-09-07T04:10:21.441Z,99.14
2022-09-07T04:12:50.530Z,97.60
2022-09-07T04:15:19.360Z,97.58
2022-09-07T04:17:48.370Z,97.75
2022-09-07T04:20:17.495Z,97.85
2022-09-07T04:22:51.437Z,98.34
2022-09-07T04:25:24.391Z,99.37
2022-09-07T04:27:53.202Z,100.00
2022-09-07T04:30:22.056Z,99.20
2022-09-07T04:32:50.988Z,98.95
2022-09-07T04:35:19.889Z,99.01
2022-09-07T04:37:48.814Z,98.80
2022-09-07T04:40:17.785Z,98.70
2022-09-07T04:42:47.978Z,98.80
2022-09-07T04:45:16.945Z,97.57
2022-09-07T04:47:48.539Z,97.80
2022-09-07T04:50:17.919Z,97.85
2022-09-07T04:52:48.391Z,97.93
2022-09-07T04:55:17.574Z,99.73
2022-09-07T04:57:49.857Z,99.56
2022-09-07T05:00:19.491Z,100.00
2022-09-07T05:02:48.335Z,100.00
2022-09-07T05:05:17.284Z,99.99
2022-09-07T05:07:46.192Z,98.33
2022-09-07T05:10:14.988Z,98.12
2022-09-07T05:12:43.830Z,98.80
2022-09-07T05:15:14.120Z,98.00
2022-09-07T05:17:42.872Z,97.55
2022-09-07T05:20:11.903Z,98.44
2022-09-07T05:22:41.441Z,98.76
2022-09-07T05:25:10.717Z,99.15
2022-09-07T05:27:39.782Z,98.97
2022-09-07T05:33:00.313Z,99.30
2022-09-07T05:35:29.236Z,99.17
2022-09-07T05:37:58.259Z,98.51
2022-09-07T05:40:27.146Z,98.56
2022-09-07T05:42:55.975Z,98.69
2022-09-07T05:45:24.785Z,99.43
2022-09-07T05:47:55.294Z,97.91
2022-09-07T05:50:25.546Z,97.33
2022-09-07T05:52:54.329Z,97.60
2022-09-07T05:55:30.039Z,97.61
2022-09-07T05:58:00.026Z,97.89
2022-09-07T06:00:29.063Z,99.04
2022-09-07T06:02:58.092Z,99.34
2022-09-07T06:05:28.615Z,99.74
2022-09-07T06:07:57.642Z,99.69
2022-09-07T06:13:11.062Z,95.64
2022-09-07T06:15:40.017Z,95.91
2022-09-07T06:18:09.348Z,94.71
2022-09-07T06:20:39.661Z,94.73
2022-09-07T06:23:08.515Z,95.05
2022-09-07T06:25:37.448Z,94.26
2022-09-07T06:28:06.424Z,95.62
2022-09-07T06:30:35.263Z,95.09
2022-09-07T06:33:04.227Z,94.63
2022-09-07T06:35:33.066Z,96.19
2022-09-07T06:38:03.485Z,95.74
2022-09-07T06:40:34.433Z,95.99
2022-09-07T06:43:03.476Z,94.10
2022-09-07T06:45:32.353Z,91.58
2022-09-07T06:48:01.216Z,90.07
2022-09-07T06:50:30.150Z,89.09
2022-09-07T06:55:49.128Z,89.00
2022-09-07T06:58:18.024Z,90.76
2022-09-07T07:00:47.403Z,89.22
2022-09-07T07:03:16.370Z,88.58
2022-09-07T07:05:51.942Z,87.54
2022-09-07T07:08:21.463Z,86.93
2022-09-07T07:10:52.444Z,86.86
2022-09-07T07:15:51.503Z,87.50
2022-09-07T07:18:21.476Z,85.24
2022-09-07T07:20:50.475Z,84.83
2022-09-07T07:23:19.391Z,85.60
2022-09-07T07:25:48.321Z,86.09
2022-09-07T07:31:11.282Z,83.74
2022-09-07T07:33:41.986Z,81.92
2022-09-07T07:36:12.736Z,83.52
2022-09-07T07:44:20.670Z,79.05
2022-09-07T07:46:50.669Z,81.31
2022-09-07T07:49:19.836Z,80.56
2022-09-07T07:54:37.895Z,77.45
2022-09-07T07:57:07.204Z,76.92
2022-09-07T07:59:37.504Z,76.53
2022-09-07T08:02:09.182Z,78.76
2022-09-07T08:04:38.315Z,77.84
2022-09-07T08:07:10.464Z,74.85
2022-09-07T08:09:41.448Z,76.98
2022-09-07T08:12:12.246Z,73.77
2022-09-07T08:14:42.511Z,73.84
2022-09-07T08:17:12.649Z,74.13
2022-09-07T08:19:41.628Z,71.01
2022-09-07T08:22:11.365Z,71.70
2022-09-07T08:24:40.446Z,73.54
2022-09-07T08:27:09.224Z,72.03
2022-09-07T08:29:38.204Z,72.61
2022-09-07T08:32:08.533Z,71.51
2022-09-07T08:34:38.760Z,72.64
2022-09-07T08:37:07.860Z,69.15
2022-09-07T08:39:36.963Z,69.84
2022-09-07T08:42:37.637Z,69.42
2022-09-07T08:45:08.414Z,67.80
2022-09-07T08:47:41.858Z,66.94
2022-09-07T08:50:13.024Z,66.46
2022-09-07T08:52:48.481Z,67.27
2022-09-07T08:55:20.513Z,65.89
2022-09-07T08:57:56.116Z,64.28
2022-09-07T09:00:24.840Z,66.48
2022-09-07T09:05:46.104Z,64.63
2022-09-07T09:08:32.841Z,63.52
2022-09-07T09:11:05.466Z,62.62
2022-09-07T09:13:46.256Z,63.33
2022-09-07T09:16:18.226Z,62.88
2022-09-07T09:18:59.211Z,60.42
2022-09-07T09:21:28.092Z,60.25
2022-09-07T09:24:01.982Z,61.20
2022-09-07T09:26:32.524Z,59.26
2022-09-07T09:29:13.265Z,59.20
2022-09-07T09:31:42.107Z,57.81
2022-09-07T09:34:14.095Z,58.29
2022-09-07T09:36:46.838Z,57.72
2022-09-07T09:39:26.105Z,59.09
2022-09-07T09:41:55.576Z,59.21
2022-09-07T09:44:24.583Z,58.68
2022-09-07T09:49:46.283Z,54.66
2022-09-07T09:52:43.381Z,54.73
2022-09-07T09:55:33.242Z,53.77
2022-09-07T10:04:04.454Z,57.78
2022-09-07T10:06:36.098Z,55.01
2022-09-07T10:09:04.992Z,55.00
2022-09-07T10:14:33.424Z,53.57
2022-09-07T10:17:02.881Z,55.22
2022-09-07T10:19:35.504Z,50.07
2022-09-07T10:22:07.081Z,49.67
2022-09-07T10:24:39.379Z,49.91
2022-09-07T10:27:21.102Z,50.46
2022-09-07T10:29:49.946Z,50.34
2022-09-07T10:32:25.251Z,48.10
2022-09-07T10:35:11.567Z,50.15
2022-09-07T10:37:47.241Z,47.80
2022-09-07T10:40:26.033Z,49.93
2022-09-07T10:46:03.958Z,50.60
2022-09-07T10:48:38.151Z,48.69
2022-09-07T10:51:14.320Z,47.16
2022-09-07T10:54:29.953Z,46.63
2022-09-07T10:56:42.050Z,46.06
2022-09-07T10:59:25.788Z,47.82
2022-09-07T11:02:03.653Z,47.24
2022-09-07T11:04:41.316Z,46.16
2022-09-07T11:07:22.120Z,46.42
2022-09-07T11:09:59.842Z,47.36
2022-09-07T11:12:31.638Z,47.15
2022-09-07T11:15:08.889Z,48.46
2022-09-07T11:17:45.324Z,48.40
2022-09-07T11:20:23.654Z,47.97
2022-09-07T11:22:55.947Z,49.34
2022-09-07T11:25:29.422Z,49.29
2022-09-07T11:28:00.812Z,50.50
2022-09-07T11:30:32.301Z,50.71
2022-09-07T11:33:04.434Z,51.50
2022-09-07T11:35:38.041Z,51.83
2022-09-07T11:38:14.233Z,52.35
2022-09-07T11:40:54.025Z,50.25
2022-09-07T11:43:26.061Z,51.94
2022-09-07T11:45:57.998Z,51.21
2022-09-07T11:48:32.471Z,50.94
2022-09-07T11:51:03.870Z,51.35
2022-09-07T11:53:34.705Z,52.15
2022-09-07T11:56:08.238Z,52.93
2022-09-07T11:59:12.161Z,51.04
2022-09-07T12:01:50.337Z,49.43
2022-09-07T12:04:44.008Z,49.10
2022-09-07T12:07:45.323Z,47.25
2022-09-07T12:10:40.398Z,48.54
2022-09-07T12:13:28.441Z,50.38
2022-09-07T12:16:03.388Z,46.64
2022-09-07T12:18:45.253Z,45.66
2022-09-07T12:21:31.174Z,46.57
2022-09-07T12:24:00.589Z,45.51
2022-09-07T12:26:51.052Z,45.64
2022-09-07T12:29:24.595Z,44.79
2022-09-07T12:31:59.171Z,44.59
2022-09-07T12:35:01.052Z,46.07
2022-09-07T12:37:41.392Z,42.12
2022-09-07T12:40:56.231Z,40.57
2022-09-07T12:43:52.885Z,41.58
2022-09-07T12:46:46.772Z,43.07
2022-09-07T12:49:48.677Z,43.95
2022-09-07T12:52:36.273Z,42.52
2022-09-07T12:55:27.450Z,42.47
2022-09-07T12:58:08.538Z,41.12
2022-09-07T13:00:49.512Z,40.71
2022-09-07T13:03:51.126Z,41.80
2022-09-07T13:09:34.741Z,42.53
2022-09-07T13:15:14.616Z,42.99
2022-09-07T13:17:56.599Z,43.31
2022-09-07T13:20:34.806Z,43.42
2022-09-07T13:23:23.757Z,44.87
2022-09-07T13:25:58.906Z,44.68
2022-09-07T13:28:37.237Z,43.06
2022-09-07T13:31:18.496Z,43.48
2022-09-07T13:33:50.530Z,43.26
2022-09-07T13:36:25.577Z,43.44
2022-09-07T13:38:55.406Z,43.60
2022-09-07T13:41:26.115Z,45.94
2022-09-07T13:43:59.829Z,45.21
2022-09-07T13:46:42.917Z,45.35
2022-09-07T13:49:20.656Z,43.85
2022-09-07T13:51:54.546Z,43.94
2022-09-07T13:54:28.035Z,44.50
2022-09-07T13:57:02.346Z,42.00
2022-09-07T13:59:35.045Z,42.59
2022-09-07T14:02:04.307Z,43.42
2022-09-07T14:04:36.043Z,41.92
2022-09-07T14:07:07.629Z,44.42
2022-09-07T14:09:36.358Z,40.63
2022-09-07T14:12:05.821Z,41.72
2022-09-07T14:14:34.433Z,41.36
2022-09-07T14:17:05.155Z,43.06
2022-09-07T14:19:38.572Z,43.32
2022-09-07T14:22:13.972Z,42.27
2022-09-07T14:24:47.940Z,43.31
2022-09-07T14:27:22.219Z,40.67
2022-09-07T14:29:51.057Z,41.44
2022-09-07T14:32:23.942Z,40.84
2022-09-07T14:34:53.156Z,40.30
2022-09-07T14:37:23.735Z,40.17
2022-09-07T14:39:53.162Z,40.51
2022-09-07T14:42:23.579Z,40.38
2022-09-07T14:45:19.111Z,39.92
2022-09-07T14:47:48.468Z,41.89
2022-09-07T14:50:20.525Z,41.39
2022-09-07T14:55:42.507Z,40.20
2022-09-07T14:58:23.700Z,40.75
2022-09-07T15:03:59.258Z,40.07
2022-09-07T15:09:30.787Z,41.66
2022-09-07T15:12:17.616Z,41.36
2022-09-07T15:14:47.587Z,41.34
2022-09-07T15:20:36.889Z,40.63
2022-09-07T15:23:06.998Z,41.48
2022-09-07T15:25:37.916Z,40.91
2022-09-07T15:28:07.083Z,41.77
2022-09-07T15:30:35.864Z,41.32
2022-09-07T15:33:05.031Z,42.14
2022-09-07T15:35:33.673Z,41.51
2022-09-07T15:38:04.672Z,41.56
2022-09-07T15:41:18.243Z,41.77
2022-09-07T15:43:37.932Z,41.84
2022-09-07T15:46:07.213Z,42.14
2022-09-07T15:48:36.294Z,41.54
2022-09-07T15:52:04.679Z,41.93
2022-09-07T15:57:48.260Z,42.50
2022-09-07T15:59:36.339Z,42.76
2022-09-07T16:03:04.491Z,42.22
2022-09-07T16:04:54.048Z,42.74
2022-09-07T16:08:24.423Z,41.86
2022-09-07T16:10:11.833Z,42.31
2022-09-07T16:15:31.175Z,42.58
2022-09-07T16:17:59.934Z,42.56
2022-09-07T16:20:32.042Z,42.36
2022-09-07T16:23:17.372Z,42.73
2022-09-07T16:25:56.533Z,43.45
2022-09-07T16:28:27.194Z,43.03
2022-09-07T16:30:56.552Z,42.49
2022-09-07T16:33:33.106Z,42.58
2022-09-07T16:36:07.432Z,43.13
2022-09-07T16:38:44.125Z,43.16
2022-09-07T16:41:14.633Z,43.07
2022-09-07T16:43:46.023Z,43.28
2022-09-07T16:46:16.443Z,43.85
2022-09-07T16:48:45.231Z,43.58
2022-09-07T16:51:16.429Z,43.21
2022-09-07T16:53:46.738Z,43.96
2022-09-07T16:56:17.366Z,44.35
2022-09-07T16:58:49.217Z,44.01
2022-09-07T17:01:20.279Z,43.30
2022-09-07T17:03:50.307Z,44.90
2022-09-07T17:06:21.510Z,43.33
2022-09-07T17:08:50.328Z,43.54
2022-09-07T17:11:21.274Z,43.76
2022-09-07T17:13:51.948Z,43.85
2022-09-07T17:16:22.569Z,44.11
2022-09-07T17:21:41.829Z,43.74
2022-09-07T17:24:11.645Z,44.17
2022-09-07T17:26:42.189Z,44.27
2022-09-07T17:29:13.103Z,44.95
2022-09-07T17:34:31.511Z,46.73
2022-09-07T17:37:01.127Z,47.35
2022-09-07T17:39:30.538Z,46.62
2022-09-07T17:41:59.372Z,46.95
2022-09-07T17:44:34.686Z,47.15
2022-09-07T17:47:06.741Z,46.08
2022-09-07T17:49:35.432Z,46.69
2022-09-07T17:52:04.188Z,48.85
2022-09-07T17:54:32.989Z,48.39
2022-09-07T17:57:01.822Z,47.44
2022-09-07T18:02:21.303Z,47.45
2022-09-07T18:04:50.256Z,48.75
2022-09-07T18:07:18.956Z,50.21
2022-09-07T18:09:47.751Z,51.04
2022-09-07T18:12:16.414Z,53.34
2022-09-07T18:14:46.616Z,52.11
2022-09-07T18:17:15.451Z,52.53
2022-09-07T18:19:44.357Z,52.70
2022-09-07T18:22:13.061Z,52.40
2022-09-07T18:24:41.977Z,53.60
2022-09-07T18:27:11.015Z,53.67
2022-09-07T18:29:39.742Z,56.97
2022-09-07T18:32:10.221Z,61.91
2022-09-07T18:34:41.327Z,61.97
2022-09-07T18:37:12.088Z,63.86
2022-09-07T18:39:41.585Z,69.42
2022-09-07T18:42:10.785Z,65.02
2022-09-07T18:47:29.891Z,73.32
2022-09-07T18:49:59.024Z,69.51
2022-09-07T18:55:17.326Z,71.90
2022-09-07T18:57:46.421Z,71.92
2022-09-07T19:00:16.127Z,69.80
2022-09-07T19:02:50.588Z,71.50
2022-09-07T19:08:08.534Z,71.84
2022-09-07T19:10:38.310Z,68.58
2022-09-07T19:13:07.155Z,69.45
2022-09-07T19:15:37.692Z,70.08
2022-09-07T19:18:09.115Z,67.88
2022-09-07T19:20:38.169Z,69.27
2022-09-07T19:23:07.094Z,69.37
2022-09-07T19:25:36.011Z,68.98
2022-09-07T19:28:04.741Z,65.86
2022-09-07T19:30:36.394Z,64.12
2022-09-07T19:33:09.777Z,62.28
2022-09-07T19:35:39.909Z,63.88
2022-09-07T19:38:08.599Z,64.53
2022-09-07T19:40:37.328Z,64.96
2022-09-07T19:43:06.333Z,64.84
2022-09-07T19:45:39.438Z,67.72
2022-09-07T19:48:08.271Z,65.43
2022-09-07T19:50:37.185Z,61.94
2022-09-07T19:53:07.347Z,64.18
2022-09-07T19:55:36.064Z,65.96
2022-09-07T19:58:05.377Z,65.55
2022-09-07T20:00:34.141Z,64.58
2022-09-07T20:03:03.034Z,66.17
2022-09-07T20:05:38.367Z,66.20
2022-09-07T20:08:08.810Z,66.13
2022-09-07T20:10:37.521Z,67.10
2022-09-07T20:13:06.372Z,66.59
2022-09-07T20:15:35.033Z,65.40
2022-09-07T20:18:03.921Z,65.92
2022-09-07T20:20:34.513Z,67.51
2022-09-07T20:23:03.590Z,67.09
2022-09-07T20:25:33.687Z,68.33
2022-09-07T20:28:02.488Z,69.59
2022-09-07T20:30:33.789Z,70.80
2022-09-07T20:33:02.707Z,73.30
2022-09-07T20:35:32.507Z,74.78
2022-09-07T20:38:02.248Z,76.21
2022-09-07T20:40:32.034Z,77.28
2022-09-07T20:43:02.283Z,78.25
2022-09-07T20:45:31.971Z,79.09
2022-09-07T20:48:00.817Z,79.47
2022-09-07T20:50:29.563Z,80.01
2022-09-07T20:52:58.387Z,80.56
2022-09-07T20:55:27.278Z,81.59
2022-09-07T20:57:56.453Z,82.55
2022-09-07T21:00:26.891Z,83.32
2022-09-07T21:02:55.806Z,81.99
2022-09-07T21:05:24.507Z,80.76
2022-09-07T21:07:53.288Z,80.77
2022-09-07T21:10:22.154Z,80.42
2022-09-07T21:12:51.074Z,80.63
2022-09-07T21:15:19.957Z,81.44
2022-09-07T21:17:50.123Z,81.38
2022-09-07T21:20:18.878Z,81.71
2022-09-07T21:22:48.149Z,81.81
2022-09-07T21:25:16.999Z,81.91
2022-09-07T21:27:45.849Z,82.99
2022-09-07T21:30:14.825Z,83.41
2022-09-07T21:32:43.634Z,83.52
2022-09-07T21:35:13.666Z,83.88
2022-09-07T21:37:42.744Z,84.20
2022-09-07T21:40:12.174Z,83.96
2022-09-07T21:42:41.352Z,84.26
2022-09-07T21:45:11.768Z,84.42
2022-09-07T21:47:40.447Z,84.32
2022-09-07T21:50:09.385Z,84.01
2022-09-07T21:52:39.986Z,83.77
2022-09-07T21:55:09.990Z,83.16
2022-09-07T21:57:38.794Z,83.76
2022-09-07T22:00:09.181Z,83.55
2022-09-07T22:02:37.906Z,84.61
2022-09-07T22:05:06.908Z,85.42
2022-09-07T22:07:35.936Z,85.74
2022-09-07T22:10:08.227Z,85.69
2022-09-07T22:12:37.441Z,86.15
2022-09-07T22:15:07.086Z,85.94
2022-09-07T22:17:35.708Z,85.17
2022-09-07T22:20:04.889Z,84.30
2022-09-07T22:22:35.416Z,84.34
2022-09-07T22:25:04.156Z,84.78
2022-09-07T22:27:34.167Z,84.43
2022-09-07T22:30:02.954Z,85.48
2022-09-07T22:32:31.613Z,87.51
2022-09-07T22:35:00.443Z,88.35
2022-09-07T22:37:29.037Z,88.11
2022-09-07T22:39:58.395Z,88.02
2022-09-07T22:42:27.120Z,87.96
2022-09-07T22:44:57.547Z,88.63
2022-09-07T22:47:26.367Z,87.09
2022-09-07T22:49:55.174Z,86.74
2022-09-07T22:52:23.885Z,88.09
2022-09-07T22:54:52.676Z,88.84
2022-09-07T22:57:21.568Z,91.28
2022-09-07T22:59:51.524Z,90.17
2022-09-07T23:02:21.820Z,89.75
2022-09-07T23:04:50.505Z,91.96
2022-09-07T23:07:19.229Z,92.53
2022-09-07T23:09:47.998Z,92.89
2022-09-07T23:12:17.168Z,92.58
2022-09-07T23:14:45.806Z,93.30
2022-09-07T23:17:14.553Z,92.33
2022-09-07T23:19:44.621Z,92.26
2022-09-07T23:22:14.301Z,91.48
2022-09-07T23:24:43.014Z,91.65
2022-09-07T23:27:11.704Z,91.82
2022-09-07T23:29:40.453Z,92.50
2022-09-07T23:32:09.131Z,92.95
2022-09-07T23:34:37.954Z,92.69
2022-09-07T23:37:07.998Z,91.63
2022-09-07T23:39:36.835Z,92.85
2022-09-07T23:42:05.900Z,93.90
2022-09-07T23:44:34.610Z,93.42
2022-09-07T23:47:03.374Z,94.35
2022-09-07T23:49:32.384Z,94.29
2022-09-07T23:52:01.185Z,94.27
2022-09-07T23:54:31.312Z,93.93
2022-09-07T23:57:00.263Z,94.44
2022-09-07T23:59:29.263Z,94.91
